sensor_id;sensor_type;location;lat;lon;timestamp;P1;durP1;ratioP1;P2;durP2;ratioP2
29200;SDS011;16244;51.956;12.980;2023-07-31T00:02:23;69.97;;;60.83;;
29200;SDS011;16244;51.956;12.980;2023-07-31T00:04:51;76.27;;;58.77;;
29200;SDS011;16244;51.956;12.980;2023-07-31T00:07:18;95.87;;;69.23;;
29200;SDS011;16244;51.956;12.980;2023-07-31T00:09:45;55.53;;;50.17;;
29200;SDS011;16244;51.956;12.980;2023-07-31T00:12:14;118.73;;;73.77;;
29200;SDS011;16244;51.956;12.980;2023-07-31T00:14:42;81.23;;;62.03;;
29200;SDS011;16244;51.956;12.980;2023-07-31T00:17:09;66.00;;;59.03;;
29200;SDS011;16244;51.956;12.980;2023-07-31T00:19:37;72.60;;;54.60;;
29200;SDS011;16244;51.956;12.980;2023-07-31T00:22:05;68.87;;;59.03;;
29200;SDS011;16244;51.956;12.980;2023-07-31T00:24:32;76.20;;;65.77;;
29200;SDS011;16244;51.956;12.980;2023-07-31T00:27:04;99.33;;;71.17;;
29200;SDS011;16244;51.956;12.980;2023-07-31T00:29:38;67.03;;;59.73;;
29200;SDS011;16244;51.956;12.980;2023-07-31T00:32:11;68.33;;;60.93;;
29200;SDS011;16244;51.956;12.980;2023-07-31T00:34:39;72.77;;;64.80;;
29200;SDS011;16244;51.956;12.980;2023-07-31T00:37:12;110.03;;;95.03;;
29200;SDS011;16244;51.956;12.980;2023-07-31T00:39:41;76.67;;;65.33;;
29200;SDS011;16244;51.956;12.980;2023-07-31T00:42:08;80.23;;;60.97;;
29200;SDS011;16244;51.956;12.980;2023-07-31T00:44:36;56.80;;;50.83;;
29200;SDS011;16244;51.956;12.980;2023-07-31T00:47:05;83.67;;;61.00;;
29200;SDS011;16244;51.956;12.980;2023-07-31T00:49:33;88.67;;;61.53;;
29200;SDS011;16244;51.956;12.980;2023-07-31T00:52:00;72.57;;;58.53;;
29200;SDS011;16244;51.956;12.980;2023-07-31T00:54:28;73.17;;;61.13;;
29200;SDS011;16244;51.956;12.980;2023-07-31T00:56:56;116.27;;;97.23;;
29200;SDS011;16244;51.956;12.980;2023-07-31T00:59:24;60.30;;;52.80;;
29200;SDS011;16244;51.956;12.980;2023-07-31T01:01:51;109.47;;;92.37;;
29200;SDS011;16244;51.956;12.980;2023-07-31T01:04:20;60.90;;;54.30;;
29200;SDS011;16244;51.956;12.980;2023-07-31T01:06:52;62.43;;;55.83;;
29200;SDS011;16244;51.956;12.980;2023-07-31T01:09:25;77.83;;;60.67;;
29200;SDS011;16244;51.956;12.980;2023-07-31T01:12:00;51.90;;;47.07;;
29200;SDS011;16244;51.956;12.980;2023-07-31T01:14:30;87.93;;;68.47;;
29200;SDS011;16244;51.956;12.980;2023-07-31T01:16:57;61.47;;;52.93;;
29200;SDS011;16244;51.956;12.980;2023-07-31T01:19:26;64.43;;;57.33;;
29200;SDS011;16244;51.956;12.980;2023-07-31T01:21:59;92.97;;;69.90;;
29200;SDS011;16244;51.956;12.980;2023-07-31T01:24:42;61.07;;;54.90;;
29200;SDS011;16244;51.956;12.980;2023-07-31T01:27:21;74.40;;;66.27;;
29200;SDS011;16244;51.956;12.980;2023-07-31T01:29:53;77.90;;;70.17;;
29200;SDS011;16244;51.956;12.980;2023-07-31T01:32:29;88.27;;;76.53;;
29200;SDS011;16244;51.956;12.980;2023-07-31T01:34:56;75.90;;;63.77;;
29200;SDS011;16244;51.956;12.980;2023-07-31T01:37:27;70.17;;;62.63;;
29200;SDS011;16244;51.956;12.980;2023-07-31T01:39:55;72.57;;;64.70;;
29200;SDS011;16244;51.956;12.980;2023-07-31T01:42:24;90.57;;;70.13;;
29200;SDS011;16244;51.956;12.980;2023-07-31T01:44:51;71.00;;;64.10;;
29200;SDS011;16244;51.956;12.980;2023-07-31T01:47:19;78.47;;;67.33;;
29200;SDS011;16244;51.956;12.980;2023-07-31T01:49:46;74.97;;;66.83;;
29200;SDS011;16244;51.956;12.980;2023-07-31T01:52:14;74.53;;;56.93;;
29200;SDS011;16244;51.956;12.980;2023-07-31T01:54:41;77.50;;;63.33;;
29200;SDS011;16244;51.956;12.980;2023-07-31T01:57:09;74.73;;;59.97;;
29200;SDS011;16244;51.956;12.980;2023-07-31T01:59:38;68.27;;;60.43;;
29200;SDS011;16244;51.956;12.980;2023-07-31T02:02:06;83.50;;;71.60;;
29200;SDS011;16244;51.956;12.980;2023-07-31T02:04:33;72.93;;;63.40;;
29200;SDS011;16244;51.956;12.980;2023-07-31T02:07:01;65.47;;;59.03;;
29200;SDS011;16244;51.956;12.980;2023-07-31T02:09:29;84.57;;;66.57;;
29200;SDS011;16244;51.956;12.980;2023-07-31T02:11:57;69.80;;;62.77;;
29200;SDS011;16244;51.956;12.980;2023-07-31T02:14:26;61.07;;;55.00;;
29200;SDS011;16244;51.956;12.980;2023-07-31T02:16:54;71.63;;;64.63;;
29200;SDS011;16244;51.956;12.980;2023-07-31T02:19:22;73.17;;;60.80;;
29200;SDS011;16244;51.956;12.980;2023-07-31T02:21:49;65.03;;;55.00;;
29200;SDS011;16244;51.956;12.980;2023-07-31T02:24:17;58.33;;;49.90;;
29200;SDS011;16244;51.956;12.980;2023-07-31T02:26:44;85.10;;;59.80;;
29200;SDS011;16244;51.956;12.980;2023-07-31T02:29:11;74.20;;;59.53;;
29200;SDS011;16244;51.956;12.980;2023-07-31T02:31:39;73.87;;;65.07;;
29200;SDS011;16244;51.956;12.980;2023-07-31T02:34:08;77.90;;;69.60;;
29200;SDS011;16244;51.956;12.980;2023-07-31T02:36:35;23.63;;;21.47;;
29200;SDS011;16244;51.956;12.980;2023-07-31T02:39:03;89.87;;;74.47;;
29200;SDS011;16244;51.956;12.980;2023-07-31T02:41:30;68.37;;;55.77;;
29200;SDS011;16244;51.956;12.980;2023-07-31T02:43:58;29.57;;;26.03;;
29200;SDS011;16244;51.956;12.980;2023-07-31T02:46:25;20.20;;;18.40;;
29200;SDS011;16244;51.956;12.980;2023-07-31T02:48:52;20.67;;;18.77;;
29200;SDS011;16244;51.956;12.980;2023-07-31T02:51:21;89.83;;;67.17;;
29200;SDS011;16244;51.956;12.980;2023-07-31T02:53:49;50.17;;;45.83;;
29200;SDS011;16244;51.956;12.980;2023-07-31T02:56:16;78.20;;;70.60;;
29200;SDS011;16244;51.956;12.980;2023-07-31T02:58:43;20.37;;;18.93;;
29200;SDS011;16244;51.956;12.980;2023-07-31T03:01:11;48.03;;;43.60;;
29200;SDS011;16244;51.956;12.980;2023-07-31T03:03:39;18.63;;;16.07;;
29200;SDS011;16244;51.956;12.980;2023-07-31T03:06:07;108.73;;;85.30;;
29200;SDS011;16244;51.956;12.980;2023-07-31T03:08:36;32.03;;;28.80;;
29200;SDS011;16244;51.956;12.980;2023-07-31T03:11:03;21.40;;;19.50;;
29200;SDS011;16244;51.956;12.980;2023-07-31T03:13:31;40.70;;;36.60;;
29200;SDS011;16244;51.956;12.980;2023-07-31T03:15:58;21.27;;;19.13;;
29200;SDS011;16244;51.956;12.980;2023-07-31T03:18:26;40.67;;;37.70;;
29200;SDS011;16244;51.956;12.980;2023-07-31T03:20:53;43.57;;;39.70;;
29200;SDS011;16244;51.956;12.980;2023-07-31T03:23:20;96.70;;;86.40;;
29200;SDS011;16244;51.956;12.980;2023-07-31T03:25:59;85.30;;;69.80;;
29200;SDS011;16244;51.956;12.980;2023-07-31T03:28:29;36.10;;;33.20;;
29200;SDS011;16244;51.956;12.980;2023-07-31T03:30:56;97.40;;;84.83;;
29200;SDS011;16244;51.956;12.980;2023-07-31T03:33:24;25.57;;;23.43;;
29200;SDS011;16244;51.956;12.980;2023-07-31T03:35:51;52.43;;;47.77;;
29200;SDS011;16244;51.956;12.980;2023-07-31T03:38:19;87.93;;;78.43;;
29200;SDS011;16244;51.956;12.980;2023-07-31T03:40:46;136.50;;;101.23;;
29200;SDS011;16244;51.956;12.980;2023-07-31T03:43:16;105.90;;;80.27;;
29200;SDS011;16244;51.956;12.980;2023-07-31T03:45:43;28.67;;;26.13;;
29200;SDS011;16244;51.956;12.980;2023-07-31T03:48:11;75.23;;;69.13;;
29200;SDS011;16244;51.956;12.980;2023-07-31T03:50:41;23.50;;;21.27;;
29200;SDS011;16244;51.956;12.980;2023-07-31T03:53:10;36.73;;;32.83;;
29200;SDS011;16244;51.956;12.980;2023-07-31T03:55:39;77.90;;;71.80;;
29200;SDS011;16244;51.956;12.980;2023-07-31T03:58:07;82.63;;;73.97;;
29200;SDS011;16244;51.956;12.980;2023-07-31T04:00:36;75.13;;;67.90;;
29200;SDS011;16244;51.956;12.980;2023-07-31T04:03:03;37.13;;;33.83;;
29200;SDS011;16244;51.956;12.980;2023-07-31T04:05:31;108.40;;;98.13;;
29200;SDS011;16244;51.956;12.980;2023-07-31T04:07:59;35.13;;;31.70;;
29200;SDS011;16244;51.956;12.980;2023-07-31T04:10:26;102.83;;;91.93;;
29200;SDS011;16244;51.956;12.980;2023-07-31T04:12:54;37.57;;;33.87;;
29200;SDS011;16244;51.956;12.980;2023-07-31T04:15:21;35.40;;;32.00;;
29200;SDS011;16244;51.956;12.980;2023-07-31T04:17:50;85.90;;;77.30;;
29200;SDS011;16244;51.956;12.980;2023-07-31T04:20:18;56.23;;;50.87;;
29200;SDS011;16244;51.956;12.980;2023-07-31T04:22:45;118.00;;;108.37;;
29200;SDS011;16244;51.956;12.980;2023-07-31T04:25:12;138.67;;;124.73;;
29200;SDS011;16244;51.956;12.980;2023-07-31T04:27:40;151.20;;;136.70;;
29200;SDS011;16244;51.956;12.980;2023-07-31T04:30:07;70.90;;;64.80;;
29200;SDS011;16244;51.956;12.980;2023-07-31T04:32:35;64.90;;;59.47;;
29200;SDS011;16244;51.956;12.980;2023-07-31T04:35:04;145.23;;;131.20;;
29200;SDS011;16244;51.956;12.980;2023-07-31T04:37:32;75.23;;;68.00;;
29200;SDS011;16244;51.956;12.980;2023-07-31T04:40:00;53.67;;;49.10;;
29200;SDS011;16244;51.956;12.980;2023-07-31T04:42:29;80.37;;;73.40;;
29200;SDS011;16244;51.956;12.980;2023-07-31T04:44:58;135.13;;;123.77;;
29200;SDS011;16244;51.956;12.980;2023-07-31T04:47:25;45.73;;;41.60;;
29200;SDS011;16244;51.956;12.980;2023-07-31T04:49:53;78.53;;;71.03;;
29200;SDS011;16244;51.956;12.980;2023-07-31T04:52:21;133.20;;;116.90;;
29200;SDS011;16244;51.956;12.980;2023-07-31T04:54:49;47.47;;;43.37;;
29200;SDS011;16244;51.956;12.980;2023-07-31T04:57:16;90.83;;;83.93;;
29200;SDS011;16244;51.956;12.980;2023-07-31T04:59:44;46.50;;;42.83;;
29200;SDS011;16244;51.956;12.980;2023-07-31T05:02:12;75.73;;;68.60;;
29200;SDS011;16244;51.956;12.980;2023-07-31T05:04:39;45.83;;;41.33;;
29200;SDS011;16244;51.956;12.980;2023-07-31T05:07:07;114.17;;;101.73;;
29200;SDS011;16244;51.956;12.980;2023-07-31T05:09:36;40.37;;;36.90;;
29200;SDS011;16244;51.956;12.980;2023-07-31T05:12:05;146.03;;;132.93;;
29200;SDS011;16244;51.956;12.980;2023-07-31T05:14:33;127.20;;;116.67;;
29200;SDS011;16244;51.956;12.980;2023-07-31T05:17:00;51.60;;;40.63;;
29200;SDS011;16244;51.956;12.980;2023-07-31T05:19:28;81.30;;;73.07;;
29200;SDS011;16244;51.956;12.980;2023-07-31T05:21:55;57.77;;;53.07;;
29200;SDS011;16244;51.956;12.980;2023-07-31T05:24:22;139.20;;;124.57;;
29200;SDS011;16244;51.956;12.980;2023-07-31T05:26:51;65.67;;;58.63;;
29200;SDS011;16244;51.956;12.980;2023-07-31T05:29:19;43.57;;;40.30;;
29200;SDS011;16244;51.956;12.980;2023-07-31T05:31:46;43.53;;;38.90;;
29200;SDS011;16244;51.956;12.980;2023-07-31T05:34:14;28.30;;;25.90;;
29200;SDS011;16244;51.956;12.980;2023-07-31T05:36:41;165.93;;;149.20;;
29200;SDS011;16244;51.956;12.980;2023-07-31T05:39:09;137.80;;;123.70;;
29200;SDS011;16244;51.956;12.980;2023-07-31T05:41:36;81.53;;;74.60;;
29200;SDS011;16244;51.956;12.980;2023-07-31T05:44:05;77.10;;;70.33;;
29200;SDS011;16244;51.956;12.980;2023-07-31T05:46:32;55.60;;;51.10;;
29200;SDS011;16244;51.956;12.980;2023-07-31T05:49:00;71.07;;;65.00;;
29200;SDS011;16244;51.956;12.980;2023-07-31T05:51:27;155.30;;;138.90;;
29200;SDS011;16244;51.956;12.980;2023-07-31T05:53:55;76.13;;;69.57;;
29200;SDS011;16244;51.956;12.980;2023-07-31T05:56:22;142.97;;;128.17;;
29200;SDS011;16244;51.956;12.980;2023-07-31T05:58:50;84.80;;;76.40;;
29200;SDS011;16244;51.956;12.980;2023-07-31T06:01:19;135.53;;;123.17;;
29200;SDS011;16244;51.956;12.980;2023-07-31T06:03:47;82.83;;;75.67;;
29200;SDS011;16244;51.956;12.980;2023-07-31T06:06:14;146.57;;;133.50;;
29200;SDS011;16244;51.956;12.980;2023-07-31T06:08:41;58.63;;;53.47;;
29200;SDS011;16244;51.956;12.980;2023-07-31T06:11:09;92.90;;;84.17;;
29200;SDS011;16244;51.956;12.980;2023-07-31T06:13:36;56.50;;;52.07;;
29200;SDS011;16244;51.956;12.980;2023-07-31T06:16:04;88.20;;;78.67;;
29200;SDS011;16244;51.956;12.980;2023-07-31T06:18:33;173.57;;;157.33;;
29200;SDS011;16244;51.956;12.980;2023-07-31T06:21:00;132.30;;;120.27;;
29200;SDS011;16244;51.956;12.980;2023-07-31T06:23:28;69.57;;;63.90;;
29200;SDS011;16244;51.956;12.980;2023-07-31T06:25:55;173.17;;;156.47;;
29200;SDS011;16244;51.956;12.980;2023-07-31T06:28:26;171.83;;;154.97;;
29200;SDS011;16244;51.956;12.980;2023-07-31T06:30:55;75.00;;;68.03;;
29200;SDS011;16244;51.956;12.980;2023-07-31T06:33:22;67.73;;;61.57;;
29200;SDS011;16244;51.956;12.980;2023-07-31T06:35:52;171.90;;;155.03;;
29200;SDS011;16244;51.956;12.980;2023-07-31T06:38:21;264.47;;;238.73;;
29200;SDS011;16244;51.956;12.980;2023-07-31T06:40:51;122.67;;;112.53;;
29200;SDS011;16244;51.956;12.980;2023-07-31T06:43:19;205.03;;;183.43;;
29200;SDS011;16244;51.956;12.980;2023-07-31T06:45:47;277.13;;;250.20;;
29200;SDS011;16244;51.956;12.980;2023-07-31T06:48:16;170.43;;;150.57;;
29200;SDS011;16244;51.956;12.980;2023-07-31T06:50:44;171.83;;;155.33;;
29200;SDS011;16244;51.956;12.980;2023-07-31T06:53:13;146.37;;;132.63;;
29200;SDS011;16244;51.956;12.980;2023-07-31T06:55:40;128.80;;;115.87;;
29200;SDS011;16244;51.956;12.980;2023-07-31T06:58:08;142.80;;;129.43;;
29200;SDS011;16244;51.956;12.980;2023-07-31T07:00:36;127.33;;;115.80;;
29200;SDS011;16244;51.956;12.980;2023-07-31T07:03:03;111.23;;;101.53;;
29200;SDS011;16244;51.956;12.980;2023-07-31T07:05:31;159.17;;;143.10;;
29200;SDS011;16244;51.956;12.980;2023-07-31T07:07:58;162.60;;;146.87;;
29200;SDS011;16244;51.956;12.980;2023-07-31T07:10:27;424.57;;;368.53;;
29200;SDS011;16244;51.956;12.980;2023-07-31T07:12:54;252.10;;;226.63;;
29200;SDS011;16244;51.956;12.980;2023-07-31T07:15:22;212.17;;;192.47;;
29200;SDS011;16244;51.956;12.980;2023-07-31T07:17:49;209.40;;;189.07;;
29200;SDS011;16244;51.956;12.980;2023-07-31T07:20:17;196.83;;;176.60;;
29200;SDS011;16244;51.956;12.980;2023-07-31T07:22:45;147.63;;;135.00;;
29200;SDS011;16244;51.956;12.980;2023-07-31T07:25:13;119.03;;;108.40;;
29200;SDS011;16244;51.956;12.980;2023-07-31T07:27:42;141.23;;;128.77;;
29200;SDS011;16244;51.956;12.980;2023-07-31T07:30:09;76.40;;;68.40;;
29200;SDS011;16244;51.956;12.980;2023-07-31T07:32:37;171.50;;;156.27;;
29200;SDS011;16244;51.956;12.980;2023-07-31T07:35:05;216.90;;;195.20;;
29200;SDS011;16244;51.956;12.980;2023-07-31T07:37:33;132.13;;;120.47;;
29200;SDS011;16244;51.956;12.980;2023-07-31T07:40:01;93.53;;;85.40;;
29200;SDS011;16244;51.956;12.980;2023-07-31T07:42:28;138.57;;;125.07;;
29200;SDS011;16244;51.956;12.980;2023-07-31T07:44:57;54.70;;;49.20;;
29200;SDS011;16244;51.956;12.980;2023-07-31T07:47:25;127.03;;;116.23;;
29200;SDS011;16244;51.956;12.980;2023-07-31T07:49:52;84.80;;;76.10;;
29200;SDS011;16244;51.956;12.980;2023-07-31T07:52:20;88.70;;;79.70;;
29200;SDS011;16244;51.956;12.980;2023-07-31T07:54:47;35.37;;;32.20;;
29200;SDS011;16244;51.956;12.980;2023-07-31T07:57:14;98.93;;;89.63;;
29200;SDS011;16244;51.956;12.980;2023-07-31T07:59:42;54.70;;;49.87;;
29200;SDS011;16244;51.956;12.980;2023-07-31T08:02:11;83.80;;;74.67;;
29200;SDS011;16244;51.956;12.980;2023-07-31T08:04:38;58.17;;;52.20;;
29200;SDS011;16244;51.956;12.980;2023-07-31T08:07:06;85.00;;;70.73;;
29200;SDS011;16244;51.956;12.980;2023-07-31T08:09:33;74.57;;;66.63;;
29200;SDS011;16244;51.956;12.980;2023-07-31T08:12:00;81.90;;;73.33;;
29200;SDS011;16244;51.956;12.980;2023-07-31T08:14:29;63.37;;;52.33;;
29200;SDS011;16244;51.956;12.980;2023-07-31T08:16:56;34.57;;;31.60;;
29200;SDS011;16244;51.956;12.980;2023-07-31T08:19:25;82.87;;;74.70;;
29200;SDS011;16244;51.956;12.980;2023-07-31T08:21:53;57.17;;;51.03;;
29200;SDS011;16244;51.956;12.980;2023-07-31T08:24:20;67.07;;;60.20;;
29200;SDS011;16244;51.956;12.980;2023-07-31T08:26:48;65.97;;;59.43;;
29200;SDS011;16244;51.956;12.980;2023-07-31T08:29:15;65.47;;;58.83;;
29200;SDS011;16244;51.956;12.980;2023-07-31T08:33:49;80.87;;;73.30;;
29200;SDS011;16244;51.956;12.980;2023-07-31T08:36:17;32.13;;;25.27;;
29200;SDS011;16244;51.956;12.980;2023-07-31T08:38:44;64.57;;;57.90;;
29200;SDS011;16244;51.956;12.980;2023-07-31T08:41:12;13.77;;;12.70;;
29200;SDS011;16244;51.956;12.980;2023-07-31T08:43:40;52.80;;;47.17;;
29200;SDS011;16244;51.956;12.980;2023-07-31T08:46:08;98.20;;;87.37;;
29200;SDS011;16244;51.956;12.980;2023-07-31T08:48:36;54.10;;;44.07;;
29200;SDS011;16244;51.956;12.980;2023-07-31T08:51:06;68.77;;;62.03;;
29200;SDS011;16244;51.956;12.980;2023-07-31T08:53:34;70.10;;;30.47;;
29200;SDS011;16244;51.956;12.980;2023-07-31T08:56:02;40.53;;;36.70;;
29200;SDS011;16244;51.956;12.980;2023-07-31T08:58:30;47.60;;;42.33;;
29200;SDS011;16244;51.956;12.980;2023-07-31T09:00:59;53.57;;;48.47;;
29200;SDS011;16244;51.956;12.980;2023-07-31T09:03:31;37.07;;;33.37;;
29200;SDS011;16244;51.956;12.980;2023-07-31T09:06:01;65.37;;;52.53;;
29200;SDS011;16244;51.956;12.980;2023-07-31T09:08:31;35.83;;;31.97;;
29200;SDS011;16244;51.956;12.980;2023-07-31T09:10:59;39.63;;;35.50;;
29200;SDS011;16244;51.956;12.980;2023-07-31T09:13:27;38.97;;;34.47;;
29200;SDS011;16244;51.956;12.980;2023-07-31T09:15:56;32.27;;;29.10;;
29200;SDS011;16244;51.956;12.980;2023-07-31T09:18:23;36.90;;;31.27;;
29200;SDS011;16244;51.956;12.980;2023-07-31T09:21:00;34.67;;;31.37;;
29200;SDS011;16244;51.956;12.980;2023-07-31T09:23:41;26.57;;;21.77;;
29200;SDS011;16244;51.956;12.980;2023-07-31T09:26:10;34.17;;;30.57;;
29200;SDS011;16244;51.956;12.980;2023-07-31T09:28:37;39.40;;;33.83;;
29200;SDS011;16244;51.956;12.980;2023-07-31T09:31:05;64.37;;;50.90;;
29200;SDS011;16244;51.956;12.980;2023-07-31T09:33:32;30.30;;;26.07;;
29200;SDS011;16244;51.956;12.980;2023-07-31T09:36:01;36.40;;;30.60;;
29200;SDS011;16244;51.956;12.980;2023-07-31T09:38:31;41.63;;;33.80;;
29200;SDS011;16244;51.956;12.980;2023-07-31T09:41:00;35.23;;;30.73;;
29200;SDS011;16244;51.956;12.980;2023-07-31T09:43:27;44.20;;;34.10;;
29200;SDS011;16244;51.956;12.980;2023-07-31T09:45:55;51.83;;;46.43;;
29200;SDS011;16244;51.956;12.980;2023-07-31T09:48:24;36.73;;;32.83;;
29200;SDS011;16244;51.956;12.980;2023-07-31T09:50:53;44.83;;;40.13;;
29200;SDS011;16244;51.956;12.980;2023-07-31T09:53:24;60.43;;;40.77;;
29200;SDS011;16244;51.956;12.980;2023-07-31T09:55:57;34.60;;;29.93;;
29200;SDS011;16244;51.956;12.980;2023-07-31T09:58:27;40.80;;;36.40;;
29200;SDS011;16244;51.956;12.980;2023-07-31T10:00:57;33.80;;;28.80;;
29200;SDS011;16244;51.956;12.980;2023-07-31T10:03:25;58.50;;;46.67;;
29200;SDS011;16244;51.956;12.980;2023-07-31T10:05:54;39.90;;;34.80;;
29200;SDS011;16244;51.956;12.980;2023-07-31T10:08:26;45.53;;;41.10;;
29200;SDS011;16244;51.956;12.980;2023-07-31T10:10:58;42.43;;;37.80;;
29200;SDS011;16244;51.956;12.980;2023-07-31T10:13:28;59.83;;;38.67;;
29200;SDS011;16244;51.956;12.980;2023-07-31T10:15:58;38.13;;;34.10;;
29200;SDS011;16244;51.956;12.980;2023-07-31T10:18:26;41.33;;;37.50;;
29200;SDS011;16244;51.956;12.980;2023-07-31T10:20:55;42.10;;;37.50;;
29200;SDS011;16244;51.956;12.980;2023-07-31T10:23:24;31.63;;;28.23;;
29200;SDS011;16244;51.956;12.980;2023-07-31T10:25:53;45.57;;;35.83;;
29200;SDS011;16244;51.956;12.980;2023-07-31T10:28:22;35.50;;;31.27;;
29200;SDS011;16244;51.956;12.980;2023-07-31T10:30:51;47.30;;;43.00;;
29200;SDS011;16244;51.956;12.980;2023-07-31T10:33:19;48.37;;;44.20;;
29200;SDS011;16244;51.956;12.980;2023-07-31T10:35:47;52.73;;;45.07;;
29200;SDS011;16244;51.956;12.980;2023-07-31T10:38:15;36.80;;;33.10;;
29200;SDS011;16244;51.956;12.980;2023-07-31T10:40:42;36.43;;;30.13;;
29200;SDS011;16244;51.956;12.980;2023-07-31T10:43:16;42.07;;;33.63;;
29200;SDS011;16244;51.956;12.980;2023-07-31T10:45:53;40.23;;;36.43;;
29200;SDS011;16244;51.956;12.980;2023-07-31T10:48:20;41.23;;;20.63;;
29200;SDS011;16244;51.956;12.980;2023-07-31T10:50:50;42.17;;;37.73;;
29200;SDS011;16244;51.956;12.980;2023-07-31T10:53:22;43.27;;;38.20;;
29200;SDS011;16244;51.956;12.980;2023-07-31T10:55:51;36.53;;;30.23;;
29200;SDS011;16244;51.956;12.980;2023-07-31T10:58:19;35.60;;;29.00;;
29200;SDS011;16244;51.956;12.980;2023-07-31T11:00:49;48.20;;;39.60;;
29200;SDS011;16244;51.956;12.980;2023-07-31T11:03:17;38.37;;;32.37;;
29200;SDS011;16244;51.956;12.980;2023-07-31T11:05:50;38.70;;;32.10;;
29200;SDS011;16244;51.956;12.980;2023-07-31T11:08:21;49.47;;;35.50;;
29200;SDS011;16244;51.956;12.980;2023-07-31T11:10:51;51.00;;;45.20;;
29200;SDS011;16244;51.956;12.980;2023-07-31T11:13:32;52.30;;;46.93;;
29200;SDS011;16244;51.956;12.980;2023-07-31T11:16:01;31.87;;;25.07;;
29200;SDS011;16244;51.956;12.980;2023-07-31T11:18:30;42.53;;;38.27;;
29200;SDS011;16244;51.956;12.980;2023-07-31T11:20:57;36.77;;;32.37;;
29200;SDS011;16244;51.956;12.980;2023-07-31T11:23:25;47.70;;;37.90;;
29200;SDS011;16244;51.956;12.980;2023-07-31T11:25:52;42.83;;;38.33;;
29200;SDS011;16244;51.956;12.980;2023-07-31T11:28:25;45.60;;;40.77;;
29200;SDS011;16244;51.956;12.980;2023-07-31T11:30:54;33.03;;;29.63;;
29200;SDS011;16244;51.956;12.980;2023-07-31T11:33:24;34.00;;;25.47;;
29200;SDS011;16244;51.956;12.980;2023-07-31T11:35:53;34.43;;;30.10;;
29200;SDS011;16244;51.956;12.980;2023-07-31T11:38:21;53.63;;;46.97;;
29200;SDS011;16244;51.956;12.980;2023-07-31T11:40:50;30.77;;;26.17;;
29200;SDS011;16244;51.956;12.980;2023-07-31T11:43:18;28.03;;;25.00;;
29200;SDS011;16244;51.956;12.980;2023-07-31T11:45:47;41.70;;;30.43;;
29200;SDS011;16244;51.956;12.980;2023-07-31T11:48:19;50.67;;;45.27;;
29200;SDS011;16244;51.956;12.980;2023-07-31T11:50:49;28.63;;;25.63;;
29200;SDS011;16244;51.956;12.980;2023-07-31T11:53:19;42.10;;;38.17;;
29200;SDS011;16244;51.956;12.980;2023-07-31T11:55:50;50.83;;;45.43;;
29200;SDS011;16244;51.956;12.980;2023-07-31T11:58:18;35.93;;;28.20;;
29200;SDS011;16244;51.956;12.980;2023-07-31T12:00:46;33.80;;;30.33;;
29200;SDS011;16244;51.956;12.980;2023-07-31T12:03:15;38.27;;;34.27;;
29200;SDS011;16244;51.956;12.980;2023-07-31T12:05:43;44.30;;;31.60;;
29200;SDS011;16244;51.956;12.980;2023-07-31T12:08:12;28.33;;;25.07;;
29200;SDS011;16244;51.956;12.980;2023-07-31T12:10:39;35.73;;;31.30;;
29200;SDS011;16244;51.956;12.980;2023-07-31T12:13:08;46.67;;;41.93;;
29200;SDS011;16244;51.956;12.980;2023-07-31T12:15:39;35.57;;;29.87;;
29200;SDS011;16244;51.956;12.980;2023-07-31T12:18:09;35.47;;;31.77;;
29200;SDS011;16244;51.956;12.980;2023-07-31T12:20:41;52.03;;;47.57;;
29200;SDS011;16244;51.956;12.980;2023-07-31T12:23:15;35.97;;;31.10;;
29200;SDS011;16244;51.956;12.980;2023-07-31T12:25:43;37.10;;;33.47;;
29200;SDS011;16244;51.956;12.980;2023-07-31T12:28:11;43.17;;;31.60;;
29200;SDS011;16244;51.956;12.980;2023-07-31T12:30:39;60.83;;;54.33;;
29200;SDS011;16244;51.956;12.980;2023-07-31T12:33:12;52.73;;;43.93;;
29200;SDS011;16244;51.956;12.980;2023-07-31T12:35:41;55.87;;;49.87;;
29200;SDS011;16244;51.956;12.980;2023-07-31T12:38:11;35.67;;;31.83;;
29200;SDS011;16244;51.956;12.980;2023-07-31T12:40:40;45.87;;;38.53;;
29200;SDS011;16244;51.956;12.980;2023-07-31T12:43:08;44.00;;;35.47;;
29200;SDS011;16244;51.956;12.980;2023-07-31T12:45:36;54.13;;;48.70;;
29200;SDS011;16244;51.956;12.980;2023-07-31T12:48:04;35.60;;;31.90;;
29200;SDS011;16244;51.956;12.980;2023-07-31T12:50:32;35.00;;;31.37;;
29200;SDS011;16244;51.956;12.980;2023-07-31T12:53:02;56.60;;;50.67;;
29200;SDS011;16244;51.956;12.980;2023-07-31T12:55:30;51.87;;;37.87;;
29200;SDS011;16244;51.956;12.980;2023-07-31T12:58:00;34.30;;;30.87;;
29200;SDS011;16244;51.956;12.980;2023-07-31T13:00:27;37.83;;;33.83;;
29200;SDS011;16244;51.956;12.980;2023-07-31T13:02:55;54.80;;;40.30;;
29200;SDS011;16244;51.956;12.980;2023-07-31T13:05:22;36.43;;;32.57;;
29200;SDS011;16244;51.956;12.980;2023-07-31T13:07:50;36.27;;;31.70;;
29200;SDS011;16244;51.956;12.980;2023-07-31T13:10:17;38.57;;;28.70;;
29200;SDS011;16244;51.956;12.980;2023-07-31T13:12:45;54.23;;;45.10;;
29200;SDS011;16244;51.956;12.980;2023-07-31T13:15:14;36.90;;;31.10;;
29200;SDS011;16244;51.956;12.980;2023-07-31T13:17:41;43.80;;;36.80;;
29200;SDS011;16244;51.956;12.980;2023-07-31T13:20:09;48.57;;;32.23;;
29200;SDS011;16244;51.956;12.980;2023-07-31T13:22:37;49.27;;;44.00;;
29200;SDS011;16244;51.956;12.980;2023-07-31T13:25:05;47.63;;;35.33;;
29200;SDS011;16244;51.956;12.980;2023-07-31T13:27:33;38.20;;;30.47;;
29200;SDS011;16244;51.956;12.980;2023-07-31T13:30:02;25.03;;;21.33;;
29200;SDS011;16244;51.956;12.980;2023-07-31T13:32:31;40.23;;;35.37;;
29200;SDS011;16244;51.956;12.980;2023-07-31T13:34:58;31.70;;;24.33;;
29200;SDS011;16244;51.956;12.980;2023-07-31T13:37:26;47.90;;;28.53;;
29200;SDS011;16244;51.956;12.980;2023-07-31T13:39:53;32.10;;;27.50;;
29200;SDS011;16244;51.956;12.980;2023-07-31T13:42:21;38.40;;;32.60;;
29200;SDS011;16244;51.956;12.980;2023-07-31T13:44:48;33.13;;;29.53;;
29200;SDS011;16244;51.956;12.980;2023-07-31T13:47:16;32.87;;;27.97;;
29200;SDS011;16244;51.956;12.980;2023-07-31T13:49:44;27.17;;;20.87;;
29200;SDS011;16244;51.956;12.980;2023-07-31T13:52:12;39.53;;;33.53;;
29200;SDS011;16244;51.956;12.980;2023-07-31T13:54:39;27.87;;;25.40;;
29200;SDS011;16244;51.956;12.980;2023-07-31T13:57:08;33.53;;;24.83;;
29200;SDS011;16244;51.956;12.980;2023-07-31T13:59:36;29.40;;;26.27;;
29200;SDS011;16244;51.956;12.980;2023-07-31T14:02:04;24.00;;;21.37;;
29200;SDS011;16244;51.956;12.980;2023-07-31T14:04:31;33.70;;;26.07;;
29200;SDS011;16244;51.956;12.980;2023-07-31T14:07:00;34.23;;;22.23;;
29200;SDS011;16244;51.956;12.980;2023-07-31T14:09:29;32.17;;;24.50;;
29200;SDS011;16244;51.956;12.980;2023-07-31T14:11:56;32.83;;;24.77;;
29200;SDS011;16244;51.956;12.980;2023-07-31T14:14:24;37.97;;;24.87;;
29200;SDS011;16244;51.956;12.980;2023-07-31T14:16:51;25.00;;;22.37;;